Time;durP1;ratioP1;P1;durP2;ratioP2;P2;SDS_P1;SDS_P2;PMS_P1;PMS_P2;Temp;Humidity;BMP_temperature;BMP_pressure;BME280_temperature;BME280_humidity;BME280_pressure;Samples;Min_cycle;Max_cycle;Signal;HPM_P1;HPM_P2
2023/03/22 00:03:02;;;;;;;5.72;1.42;;;15.20;99.90;;;;;;10529914;28;20499;-22
2023/03/22 00:08:05;;;;;;;9.40;1.75;;;16.10;98.20;;;;;;10515099;28;20097;-23
2023/03/22 00:13:09;;;;;;;8.77;1.48;;;15.00;99.90;;;;;;10529379;28;20094;-24
2023/03/22 00:18:13;;;;;;;8.73;2.10;;;16.00;99.90;;;;;;10534299;28;20094;-23
2023/03/22 00:23:15;;;;;;;2.75;1.05;;;15.60;99.90;;;;;;10526979;28;20489;-25
2023/03/22 00:28:18;;;;;;;2.92;0.93;;;17.50;92.90;;;;;;10523956;28;20142;-23
2023/03/22 00:33:22;;;;;;;3.60;1.20;;;17.90;90.00;;;;;;10512963;28;20040;-24
2023/03/22 00:38:32;;;;;;;2.17;0.80;;;17.20;94.20;;;;;;10522459;28;20770;-23
2023/03/22 00:43:35;;;;;;;3.55;0.73;;;17.60;92.50;;;;;;10510605;28;20560;-23
2023/03/22 00:48:39;;;;;;;1.10;0.52;;;18.40;87.70;;;;;;10520875;28;20048;-24
2023/03/22 00:53:41;;;;;;;3.42;0.80;;;18.50;85.80;;;;;;10511758;28;20467;-22
2023/03/22 00:58:43;;;;;;;;;;;18.50;84.80;;;;;;10534839;28;20044;-23
2023/03/22 01:03:49;;;;;;;4.38;0.85;;;18.30;87.80;;;;;;10509057;28;19974;-24
2023/03/22 01:08:53;;;;;;;2.58;0.90;;;18.60;84.70;;;;;;10522658;28;20048;-24
2023/03/22 01:13:56;;;;;;;2.35;0.65;;;18.70;84.00;;;;;;10520423;28;20052;-26
2023/03/22 01:19:00;;;;;;;1.90;0.77;;;18.80;82.80;;;;;;10510719;28;20783;-23
2023/03/22 01:24:02;;;;;;;1.95;0.85;;;18.80;82.30;;;;;;10509789;28;20066;-24
2023/03/22 01:29:04;;;;;;;1.30;0.60;;;18.80;82.60;;;;;;10522709;28;20177;-24
2023/03/22 01:34:08;;;;;;;;;;;18.80;81.80;;;;;;10519157;28;20070;-24
2023/03/22 01:39:10;;;;;;;4.07;0.80;;;18.80;82.50;;;;;;10515421;28;20604;-24
2023/03/22 01:44:15;;;;;;;5.57;0.85;;;18.70;83.20;;;;;;10517269;28;20060;-24
2023/03/22 01:49:23;;;;;;;6.28;0.85;;;18.70;83.70;;;;;;10518840;28;20071;-25
2023/03/22 01:54:30;;;;;;;4.03;0.90;;;18.30;85.70;;;;;;10507367;28;20476;-28
2023/03/22 01:59:32;;;;;;;2.30;0.93;;;18.10;88.80;;;;;;10505600;28;20451;-23
2023/03/22 02:04:38;;;;;;;4.70;1.98;;;18.10;88.00;;;;;;10514046;28;20071;-24
2023/03/22 02:09:41;;;;;;;5.65;1.70;;;18.20;86.60;;;;;;10517036;28;20055;-24
2023/03/22 02:14:56;;;;;;;5.38;2.22;;;16.30;97.60;;;;;;10512880;28;20055;-24
2023/03/22 02:20:37;;;;;;;6.50;2.58;;;16.20;97.50;;;;;;10507021;28;20044;-24
2023/03/22 02:26:17;;;;;;;2.20;1.10;;;17.10;92.00;;;;;;10519250;28;20133;-28
2023/03/22 02:31:50;;;;;;;4.88;1.10;;;16.40;95.70;;;;;;10513270;28;20143;-23
2023/03/22 02:37:32;;;;;;;10.95;2.83;;;16.40;95.10;;;;;;10514285;28;20529;-24
2023/03/22 02:42:49;;;;;;;11.63;4.25;;;14.20;99.90;;;;;;10478754;28;20044;-23
2023/03/22 02:47:55;;;;;;;6.65;2.75;;;13.70;99.90;;;;;;10520559;28;20126;-24
2023/03/22 02:53:05;;;;;;;10.27;4.18;;;14.50;99.90;;;;;;10507868;28;20064;-25
2023/03/22 02:58:15;;;;;;;6.85;2.55;;;13.80;99.90;;;;;;10524075;28;20048;-24
2023/03/22 03:03:19;;;;;;;5.85;2.88;;;14.30;99.90;;;;;;10522404;28;20135;-24
2023/03/22 03:08:22;;;;;;;4.68;1.48;;;14.30;99.90;;;;;;10513576;28;20476;-23
2023/03/22 03:13:26;;;;;;;13.27;3.80;;;16.20;98.40;;;;;;10522669;28;20142;-25
2023/03/22 03:18:43;;;;;;;7.95;1.88;;;14.40;99.90;;;;;;10516706;28;20078;-23
2023/03/22 03:23:54;;;;;;;5.13;1.73;;;15.60;99.90;;;;;;10512808;28;20052;-22
2023/03/22 03:29:03;;;;;;;8.38;2.35;;;16.20;94.80;;;;;;10514157;28;20063;-23
2023/03/22 03:34:13;;;;;;;7.40;2.50;;;14.20;99.90;;;;;;10519647;28;20048;-24
2023/03/22 03:39:18;;;;;;;9.07;2.45;;;14.20;99.90;;;;;;10517381;28;20056;-25
2023/03/22 03:44:22;;;;;;;9.43;3.58;;;14.30;99.90;;;;;;10509531;28;20051;-24
2023/03/22 03:49:25;;;;;;;10.27;3.63;;;14.10;99.90;;;;;;10516717;28;20127;-24
2023/03/22 03:54:28;;;;;;;8.38;3.30;;;14.80;98.70;;;;;;10521806;28;20047;-24
2023/03/22 03:59:31;;;;;;;8.83;3.27;;;14.00;99.90;;;;;;10519860;28;20079;-24
2023/03/22 04:04:34;;;;;;;7.70;2.35;;;14.70;99.70;;;;;;10524556;28;20531;-23
2023/03/22 04:09:39;;;;;;;10.73;3.70;;;15.80;99.00;;;;;;10533975;28;20052;-24
2023/03/22 04:14:43;;;;;;;4.50;1.98;;;15.10;97.60;;;;;;10522962;28;20472;-24
2023/03/22 04:19:46;;;;;;;9.32;2.90;;;15.40;99.90;;;;;;10517974;28;20051;-24
2023/03/22 04:24:49;;;;;;;8.10;2.30;;;14.30;99.90;;;;;;10522456;28;20813;-24
2023/03/22 04:29:53;;;;;;;10.50;2.83;;;14.30;99.90;;;;;;10527933;28;20077;-24
2023/03/22 04:34:55;;;;;;;8.02;2.05;;;13.20;99.90;;;;;;10522700;28;20098;-23
2023/03/22 04:39:58;;;;;;;7.80;3.07;;;13.80;99.90;;;;;;10514609;28;20041;-23
2023/03/22 04:45:02;;;;;;;;;;;13.50;99.90;;;;;;10520061;28;20061;-24
2023/03/22 04:50:05;;;;;;;7.75;3.08;;;15.10;99.90;;;;;;10516083;28;20007;-23
2023/03/22 04:55:07;;;;;;;13.98;3.28;;;14.60;99.90;;;;;;10515365;28;20571;-23
2023/03/22 05:00:12;;;;;;;4.47;1.63;;;13.90;99.90;;;;;;10526706;28;20139;-24
2023/03/22 05:05:14;;;;;;;5.38;2.35;;;15.20;99.90;;;;;;10522360;28;20565;-24
2023/03/22 05:10:16;;;;;;;12.82;2.65;;;15.00;99.90;;;;;;10519223;28;20076;-24
2023/03/22 05:15:19;;;;;;;15.73;2.77;;;14.50;98.10;;;;;;10515851;28;20102;-23
2023/03/22 05:20:22;;;;;;;7.13;1.85;;;14.10;97.70;;;;;;10519240;28;20134;-24
2023/03/22 05:25:24;;;;;;;8.82;1.58;;;14.20;99.90;;;;;;10511503;28;20044;-23
2023/03/22 05:30:28;;;;;;;10.23;1.92;;;15.50;98.90;;;;;;10509347;28;20044;-23
2023/03/22 05:35:30;;;;;;;2.60;1.20;;;14.60;97.10;;;;;;10517095;28;20448;-24
2023/03/22 05:40:33;;;;;;;;;;;14.90;99.90;;;;;;10509405;28;20044;-23
2023/03/22 05:45:37;;;;;;;8.05;1.77;;;13.90;99.90;;;;;;10526457;28;19963;-25
2023/03/22 05:50:39;;;;;;;5.95;2.22;;;13.90;99.90;;;;;;10516222;28;20106;-23
2023/03/22 05:55:41;;;;;;;9.13;2.03;;;14.80;99.90;;;;;;10518187;28;20476;-23
2023/03/22 06:00:45;;;;;;;2.63;1.02;;;15.30;97.80;;;;;;10514385;28;20136;-24
2023/03/22 06:05:49;;;;;;;5.05;1.10;;;16.20;98.40;;;;;;10506061;28;21321;-22
2023/03/22 06:10:52;;;;;;;5.93;1.42;;;16.90;94.70;;;;;;10524674;28;20048;-24
2023/03/22 06:15:55;;;;;;;12.52;2.20;;;16.00;99.10;;;;;;10526824;28;20055;-25
2023/03/22 06:20:57;;;;;;;10.07;1.60;;;14.80;95.40;;;;;;10513947;28;20138;-25
2023/03/22 06:25:59;;;;;;;14.05;2.15;;;15.00;98.40;;;;;;10516813;28;20039;-25
2023/03/22 06:31:07;;;;;;;4.55;1.50;;;15.20;94.10;;;;;;10518080;28;20048;-26
2023/03/22 06:36:10;;;;;;;9.80;1.85;;;15.10;99.90;;;;;;10513614;28;20044;-25
2023/03/22 06:41:12;;;;;;;15.95;2.22;;;15.00;97.30;;;;;;10515621;28;20528;-26
2023/03/22 06:46:15;;;;;;;6.85;1.52;;;15.30;93.50;;;;;;10508823;28;20040;-24
2023/03/22 06:51:17;;;;;;;7.68;1.17;;;15.80;98.80;;;;;;10513814;28;20489;-24
2023/03/22 06:56:18;;;;;;;7.93;2.60;;;14.60;99.90;;;;;;10516505;28;20139;-25
2023/03/22 07:01:22;;;;;;;2.30;0.90;;;15.20;99.90;;;;;;10507384;28;20083;-23
2023/03/22 07:15:18;;;;;;;8.32;1.23;;;17.30;93.70;;;;;;10547148;27;20127;-26
2023/03/22 07:20:21;;;;;;;12.52;2.70;;;17.00;90.10;;;;;;10562554;28;20139;-23
2023/03/22 07:25:24;;;;;;;7.63;2.17;;;15.60;96.70;;;;;;10564810;28;20131;-23
2023/03/22 07:30:27;;;;;;;9.18;1.48;;;16.00;93.70;;;;;;10573514;28;20058;-23
2023/03/22 07:35:30;;;;;;;10.00;1.63;;;15.30;99.90;;;;;;10562540;28;20043;-24
2023/03/22 07:40:32;;;;;;;;;;;14.20;99.90;;;;;;10566239;28;20052;-27
2023/03/22 07:45:35;;;;;;;4.55;1.08;;;16.30;98.50;;;;;;10558638;28;19919;-24
2023/03/22 07:50:37;;;;;;;7.13;1.30;;;17.30;93.60;;;;;;10554683;28;20075;-25
2023/03/22 07:55:41;;;;;;;5.93;1.93;;;17.40;94.20;;;;;;10567498;28;20054;-24
2023/03/22 08:00:44;;;;;;;6.15;1.67;;;15.80;98.90;;;;;;10560867;28;20521;-23
2023/03/22 08:05:47;;;;;;;10.32;1.42;;;15.80;99.50;;;;;;10556037;28;20046;-23
2023/03/22 08:10:49;;;;;;;;;;;15.90;99.90;;;;;;10564988;28;20052;-24
2023/03/22 08:15:53;;;;;;;3.65;1.10;;;17.70;91.90;;;;;;10557452;28;20028;-24
2023/03/22 08:20:56;;;;;;;7.93;1.30;;;15.20;99.90;;;;;;10566090;28;20082;-25
2023/03/22 08:25:59;;;;;;;6.25;1.38;;;16.10;97.60;;;;;;10539099;28;20060;-25
2023/03/22 08:31:09;;;;;;;5.57;1.52;;;16.50;96.20;;;;;;10532221;28;20480;-24
2023/03/22 08:36:13;;;;;;;6.03;1.90;;;16.30;97.90;;;;;;10533993;28;20690;-32
2023/03/22 08:41:15;;;;;;;5.85;1.25;;;17.10;94.10;;;;;;10535675;28;20059;-24
2023/03/22 08:46:19;;;;;;;13.43;2.17;;;15.80;99.90;;;;;;10530478;28;20044;-25
2023/03/22 08:51:22;;;;;;;3.92;1.30;;;16.10;98.20;;;;;;10532428;28;20142;-25
2023/03/22 08:56:26;;;;;;;8.32;1.38;;;15.60;99.90;;;;;;10536394;28;20044;-25
2023/03/22 09:01:29;;;;;;;8.75;2.03;;;15.60;99.90;;;;;;10536828;28;20526;-24
2023/03/22 09:06:32;;;;;;;5.20;1.40;;;13.50;99.90;;;;;;10531142;28;20078;-25
2023/03/22 09:11:36;;;;;;;6.20;1.80;;;15.90;99.90;;;;;;10529660;28;20052;-25
2023/03/22 09:16:39;;;;;;;5.80;1.52;;;14.50;99.90;;;;;;10521583;28;20111;-25
2023/03/22 09:21:41;;;;;;;10.20;1.85;;;15.10;99.90;;;;;;10534878;28;20119;-24
2023/03/22 09:26:43;;;;;;;12.60;1.50;;;14.30;99.90;;;;;;10541549;28;20520;-24
2023/03/22 09:31:47;;;;;;;7.20;1.17;;;13.60;99.90;;;;;;10525820;28;20709;-25
2023/03/22 09:36:51;;;;;;;6.07;2.45;;;15.10;99.90;;;;;;10527276;28;20105;-23
2023/03/22 09:41:55;;;;;;;6.63;1.55;;;14.70;99.90;;;;;;10534882;28;20169;-25
2023/03/22 09:47:02;;;;;;;5.57;1.60;;;14.50;99.90;;;;;;10536970;28;20074;-26
2023/03/22 09:52:12;;;;;;;6.97;1.48;;;13.80;99.90;;;;;;10528363;28;20559;-23
2023/03/22 09:57:23;;;;;;;7.70;1.40;;;14.60;99.90;;;;;;10535459;28;20064;-25
2023/03/22 10:02:41;;;;;;;10.65;1.73;;;12.90;99.90;;;;;;10526462;28;20035;-25
2023/03/22 10:07:59;;;;;;;6.50;1.92;;;13.80;99.90;;;;;;10522594;28;20060;-25
2023/03/22 10:13:06;;;;;;;4.82;1.38;;;13.30;99.90;;;;;;10531937;28;20062;-25
2023/03/22 10:18:16;;;;;;;5.75;1.48;;;13.80;99.90;;;;;;10540179;28;20079;-26
2023/03/22 10:23:24;;;;;;;13.20;1.80;;;14.40;99.90;;;;;;10527163;28;20052;-28
2023/03/22 10:28:31;;;;;;;11.23;1.70;;;13.10;99.90;;;;;;10540450;28;20071;-25
2023/03/22 10:33:48;;;;;;;3.83;1.52;;;14.30;99.90;;;;;;10524548;28;20088;-34
2023/03/22 10:38:56;;;;;;;7.70;2.30;;;14.80;99.90;;;;;;10534714;28;20487;-25
2023/03/22 10:44:00;;;;;;;5.35;1.65;;;12.80;99.90;;;;;;10524103;28;20124;-24
2023/03/22 10:49:06;;;;;;;5.13;1.50;;;15.00;99.90;;;;;;10525316;28;20603;-23
2023/03/22 10:54:13;;;;;;;11.38;1.58;;;14.50;99.90;;;;;;10539634;28;20665;-24
2023/03/22 10:59:42;;;;;;;10.48;2.42;;;15.20;99.90;;;;;;10532991;28;20103;-26
2023/03/22 11:04:49;;;;;;;10.60;2.10;;;13.20;99.90;;;;;;10535290;28;20040;-25
2023/03/22 11:09:58;;;;;;;10.02;1.50;;;13.30;99.90;;;;;;10512895;28;20120;-25
2023/03/22 11:15:00;;;;;;;8.15;2.10;;;14.70;99.90;;;;;;10526527;28;20401;-26
2023/03/22 11:20:06;;;;;;;6.80;1.83;;;12.80;99.90;;;;;;10512345;28;20076;-25
2023/03/22 11:25:15;;;;;;;3.38;1.25;;;12.50;99.90;;;;;;10532482;28;20138;-28
2023/03/22 11:30:22;;;;;;;4.90;1.35;;;14.90;99.90;;;;;;10514999;28;20044;-24
2023/03/22 11:35:25;;;;;;;6.13;1.42;;;14.50;99.90;;;;;;10525877;28;20048;-27
2023/03/22 11:40:30;;;;;;;2.55;0.80;;;14.60;99.90;;;;;;10538700;28;20442;-24
2023/03/22 11:45:35;;;;;;;5.13;1.15;;;14.80;99.90;;;;;;10522178;28;20682;-24
2023/03/22 11:50:44;;;;;;;9.80;1.75;;;14.10;99.90;;;;;;10522921;28;20469;-24
2023/03/22 11:55:49;;;;;;;7.85;1.42;;;12.50;99.90;;;;;;10526430;28;20172;-24
2023/03/22 12:00:53;;;;;;;6.47;2.20;;;13.10;99.90;;;;;;10528092;28;20417;-22
2023/03/22 12:05:59;;;;;;;8.75;1.98;;;11.80;99.90;;;;;;10529931;28;20075;-24
2023/03/22 12:11:05;;;;;;;5.35;2.10;;;11.90;99.90;;;;;;10531971;28;20052;-24
2023/03/22 12:16:12;;;;;;;10.57;2.72;;;12.10;99.90;;;;;;10529092;28;20131;-24
2023/03/22 12:21:15;;;;;;;13.52;2.67;;;12.20;99.90;;;;;;10537676;28;20051;-24
2023/03/22 12:26:20;;;;;;;8.00;2.35;;;12.30;99.90;;;;;;10528929;28;20036;-24
2023/03/22 12:31:27;;;;;;;12.40;2.53;;;12.40;99.90;;;;;;10538101;28;20476;-24
2023/03/22 12:36:37;;;;;;;3.50;1.48;;;12.70;99.90;;;;;;10538236;28;20506;-24
2023/03/22 12:41:43;;;;;;;6.35;1.60;;;12.80;99.90;;;;;;10529476;28;20395;-22
2023/03/22 12:46:52;;;;;;;4.35;2.05;;;12.40;99.90;;;;;;10531585;28;20055;-25
2023/03/22 12:52:03;;;;;;;6.30;1.45;;;12.60;99.90;;;;;;10512639;28;20360;-24
2023/03/22 12:57:06;;;;;;;6.35;1.27;;;13.30;99.90;;;;;;10521215;28;20051;-25
2023/03/22 13:02:16;;;;;;;8.50;2.75;;;13.60;99.90;;;;;;10537379;28;20122;-23
2023/03/22 13:07:36;;;;;;;7.47;2.00;;;12.90;99.90;;;;;;10531655;28;20044;-26
2023/03/22 13:12:39;;;;;;;5.70;1.73;;;13.00;99.90;;;;;;10517151;28;20511;-23
2023/03/22 13:17:45;;;;;;;4.38;1.90;;;13.20;99.90;;;;;;10531571;28;20050;-24
2023/03/22 13:23:04;;;;;;;10.57;1.83;;;14.10;99.90;;;;;;10539483;28;20132;-24
2023/03/22 13:28:23;;;;;;;13.25;2.00;;;14.20;99.90;;;;;;10536015;28;20048;-25
2023/03/22 13:33:27;;;;;;;6.13;1.50;;;13.80;99.90;;;;;;10539264;28;20977;-23
2023/03/22 13:38:34;;;;;;;7.07;1.98;;;14.00;99.90;;;;;;10523740;28;20126;-24
2023/03/22 13:43:45;;;;;;;3.47;1.10;;;13.60;99.90;;;;;;10529487;28;20074;-26
2023/03/22 13:49:12;;;;;;;6.13;1.25;;;14.90;99.90;;;;;;10525437;28;20506;-26
2023/03/22 13:54:22;;;;;;;4.78;1.55;;;15.10;99.90;;;;;;10528761;28;20044;-23
2023/03/22 13:59:29;;;;;;;3.33;1.17;;;14.30;99.90;;;;;;10539065;28;20450;-24
2023/03/22 14:04:38;;;;;;;5.40;1.30;;;15.60;99.90;;;;;;10543495;28;20051;-26
2023/03/22 14:09:45;;;;;;;3.92;1.48;;;15.70;99.90;;;;;;10530658;28;20067;-25
2023/03/22 14:14:52;;;;;;;9.90;1.35;;;16.00;99.90;;;;;;10537581;28;20059;-23
2023/03/22 14:19:57;;;;;;;3.25;1.23;;;16.30;99.90;;;;;;10535594;28;20139;-25
2023/03/22 14:25:02;;;;;;;9.70;2.30;;;15.40;99.90;;;;;;10535910;28;20044;-24
2023/03/22 14:30:06;;;;;;;2.45;1.05;;;15.70;99.90;;;;;;10532073;28;20113;-25
2023/03/22 14:35:10;;;;;;;6.05;1.33;;;17.20;98.00;;;;;;10526682;28;20050;-25
2023/03/22 14:40:27;;;;;;;5.15;2.03;;;16.90;99.90;;;;;;10527518;28;20076;-24
2023/03/22 14:45:33;;;;;;;1.70;0.73;;;17.00;99.80;;;;;;10526374;28;20059;-23
2023/03/22 14:50:43;;;;;;;3.30;1.10;;;16.90;99.90;;;;;;10533923;28;20037;-24
2023/03/22 14:55:49;;;;;;;2.08;0.98;;;16.80;99.90;;;;;;10538581;28;20109;-24
2023/03/22 15:00:52;;;;;;;6.18;1.67;;;17.50;99.10;;;;;;10537655;28;20036;-24
2023/03/22 15:05:54;;;;;;;2.60;1.33;;;17.30;99.60;;;;;;10529802;28;20488;-26
2023/03/22 15:11:01;;;;;;;3.72;1.30;;;17.70;97.60;;;;;;10534461;28;20751;-24
2023/03/22 15:16:04;;;;;;;1.67;0.90;;;18.00;96.60;;;;;;10529590;28;20048;-25
2023/03/22 15:21:07;;;;;;;3.97;1.38;;;18.10;96.30;;;;;;10538370;28;20089;-24
2023/03/22 15:26:14;;;;;;;3.00;1.30;;;16.80;99.90;;;;;;10520821;28;20827;-23
2023/03/22 15:31:29;;;;;;;8.88;1.83;;;17.80;98.10;;;;;;10512075;28;20055;-23
2023/03/22 15:36:34;;;;;;;5.75;2.97;;;16.80;99.90;;;;;;10533036;28;20051;-25
2023/03/22 15:41:41;;;;;;;4.03;2.22;;;15.50;99.90;;;;;;10544270;28;20060;-25
2023/03/22 15:46:57;;;;;;;4.45;1.42;;;16.10;99.90;;;;;;10525695;28;20434;-24
2023/03/22 15:52:10;;;;;;;3.67;1.20;;;18.00;97.60;;;;;;10523080;28;20125;-24
2023/03/22 15:57:21;;;;;;;10.55;3.60;;;17.50;99.90;;;;;;10520298;28;20672;-23
2023/03/22 16:02:26;;;;;;;3.40;1.00;;;17.50;99.00;;;;;;10518826;28;20423;-27
2023/03/22 16:07:30;;;;;;;8.27;2.15;;;18.40;95.70;;;;;;10525798;28;20051;-24
2023/03/22 16:12:33;;;;;;;6.70;1.65;;;17.80;97.60;;;;;;10540179;28;20127;-24
2023/03/22 16:17:36;;;;;;;3.92;2.20;;;17.50;99.80;;;;;;10549653;28;20048;-25
2023/03/22 16:22:38;;;;;;;6.60;1.65;;;17.40;99.90;;;;;;10537710;28;20402;-25
2023/03/22 16:27:42;;;;;;;3.47;1.23;;;17.80;99.20;;;;;;10539977;28;20123;-24
2023/03/22 16:32:46;;;;;;;4.25;1.20;;;18.70;95.20;;;;;;10532125;28;20044;-25
2023/03/22 16:37:48;;;;;;;3.60;1.10;;;17.90;98.90;;;;;;10532987;28;20040;-24
2023/03/22 16:42:52;;;;;;;6.53;1.20;;;18.50;95.80;;;;;;10530015;28;20048;-27
2023/03/22 16:47:56;;;;;;;5.00;1.35;;;18.40;96.20;;;;;;10526849;28;20717;-25
2023/03/22 16:52:59;;;;;;;3.33;1.90;;;18.10;97.80;;;;;;10534172;28;20087;-25
2023/03/22 16:58:02;;;;;;;3.00;1.08;;;17.50;99.70;;;;;;10536956;28;20048;-26
2023/03/22 17:03:31;;;;;;;5.22;1.85;;;17.00;99.90;;;;;;10552440;28;20040;-25
2023/03/22 17:08:33;;;;;;;4.20;3.28;;;16.90;99.90;;;;;;10529687;28;20170;-25
2023/03/22 17:13:36;;;;;;;6.75;2.08;;;15.50;99.90;;;;;;10530208;28;20056;-26
2023/03/22 17:18:38;;;;;;;7.00;2.60;;;17.30;99.90;;;;;;10541956;28;20079;-24
2023/03/22 17:23:41;;;;;;;4.90;2.47;;;17.40;99.90;;;;;;10525629;28;20070;-23
2023/03/22 17:28:45;;;;;;;8.40;3.17;;;15.80;99.90;;;;;;10530585;28;20259;-24
2023/03/22 17:33:48;;;;;;;16.98;2.55;;;15.20;99.90;;;;;;10522799;28;20101;-25
2023/03/22 17:38:50;;;;;;;6.07;2.50;;;15.90;99.90;;;;;;10531012;28;20512;-27
2023/03/22 17:43:54;;;;;;;2.83;1.70;;;16.60;99.90;;;;;;10527159;28;20072;-24
2023/03/22 17:48:56;;;;;;;4.32;1.67;;;16.80;99.90;;;;;;10528602;28;20055;-25
2023/03/22 17:53:58;;;;;;;4.45;1.73;;;17.40;99.90;;;;;;10533800;28;20083;-23
2023/03/22 17:59:02;;;;;;;5.68;1.70;;;17.20;99.90;;;;;;10538458;28;20508;-24
2023/03/22 18:04:04;;;;;;;5.80;2.05;;;17.50;99.90;;;;;;10516264;28;20075;-27
2023/03/22 18:09:06;;;;;;;8.93;3.08;;;17.50;99.90;;;;;;10528018;28;20484;-24
2023/03/22 18:14:09;;;;;;;7.78;3.75;;;17.10;99.90;;;;;;10536670;28;20088;-23
2023/03/22 18:19:11;;;;;;;8.27;4.00;;;16.30;99.90;;;;;;10536346;28;20044;-23
2023/03/22 18:24:13;;;;;;;8.20;3.97;;;15.80;99.90;;;;;;10531855;28;20063;-24
2023/03/22 18:29:17;;;;;;;8.38;3.83;;;16.00;99.90;;;;;;10526604;28;20474;-25
2023/03/22 18:34:19;;;;;;;8.20;4.20;;;16.40;99.90;;;;;;10526590;28;20095;-25
2023/03/22 18:39:23;;;;;;;7.68;3.70;;;16.00;99.90;;;;;;10538182;28;20082;-23
2023/03/22 18:44:26;;;;;;;10.02;3.67;;;15.60;99.90;;;;;;10512926;28;20970;-27
2023/03/22 18:49:28;;;;;;;8.98;3.40;;;15.30;99.90;;;;;;10533583;28;20056;-25
2023/03/22 18:54:31;;;;;;;13.45;4.07;;;16.20;99.90;;;;;;10530885;28;20052;-25
2023/03/22 18:59:34;;;;;;;4.68;2.88;;;16.20;99.90;;;;;;10537598;28;20118;-25
2023/03/22 19:04:37;;;;;;;10.75;4.03;;;17.00;99.90;;;;;;10544149;28;20044;-24
2023/03/22 19:09:39;;;;;;;7.13;2.50;;;16.70;99.90;;;;;;10524715;28;20127;-23
2023/03/22 19:14:42;;;;;;;6.70;3.05;;;16.90;99.90;;;;;;10536728;28;20560;-25
2023/03/22 19:19:44;;;;;;;7.07;2.53;;;17.40;99.90;;;;;;10546831;28;20080;-28
2023/03/22 19:24:49;;;;;;;6.40;3.03;;;17.40;99.90;;;;;;10490072;28;20075;-24
2023/03/22 19:29:52;;;;;;;9.27;4.15;;;17.60;99.90;;;;;;10506990;28;20051;-25
2023/03/22 19:34:54;;;;;;;7.03;3.72;;;18.20;97.80;;;;;;10482534;28;20052;-26
2023/03/22 19:39:57;;;;;;;6.32;3.60;;;17.70;97.40;;;;;;10477040;28;20651;-26
2023/03/22 19:45:00;;;;;;;6.25;2.90;;;16.70;99.90;;;;;;10499748;28;20040;-25
2023/03/22 19:50:03;;;;;;;7.82;3.88;;;16.90;99.90;;;;;;10505403;28;20044;-25
2023/03/22 19:55:05;;;;;;;7.63;3.58;;;16.80;99.90;;;;;;10495102;28;20049;-25
2023/03/22 20:00:13;;;;;;;4.15;2.03;;;17.70;99.90;;;;;;10484512;28;20041;-26
2023/03/22 20:05:15;;;;;;;5.22;2.60;;;18.40;97.40;;;;;;10489266;28;20064;-27
2023/03/22 20:10:18;;;;;;;5.38;1.88;;;17.60;98.30;;;;;;10478413;28;20150;-25
2023/03/22 20:15:21;;;;;;;4.03;2.33;;;18.80;96.10;;;;;;10480613;28;20051;-24
2023/03/22 20:20:23;;;;;;;12.18;2.30;;;17.90;99.30;;;;;;10499855;28;20044;-22
2023/03/22 20:25:25;;;;;;;9.30;2.30;;;18.10;98.50;;;;;;10505941;28;20121;-24
2023/03/22 20:30:29;;;;;;;10.93;2.90;;;18.70;96.40;;;;;;10493420;28;20060;-27
2023/03/22 20:35:31;;;;;;;5.18;2.13;;;18.10;98.10;;;;;;10489158;28;20609;-26
2023/03/22 20:40:34;;;;;;;7.45;2.58;;;18.60;94.50;;;;;;10489003;28;20076;-26
2023/03/22 20:45:37;;;;;;;7.68;3.03;;;18.30;94.80;;;;;;10501295;28;20477;-25
2023/03/22 20:50:39;;;;;;;7.53;2.90;;;17.90;96.40;;;;;;10503779;28;20115;-25
2023/03/22 20:55:42;;;;;;;7.85;2.80;;;18.10;98.10;;;;;;10492784;28;20052;-27
2023/03/22 21:00:46;;;;;;;5.68;2.70;;;17.80;99.80;;;;;;10491093;28;20280;-24
2023/03/22 21:05:48;;;;;;;6.88;2.45;;;17.60;97.80;;;;;;10492260;28;20473;-24
2023/03/22 21:10:50;;;;;;;10.65;3.08;;;17.80;99.20;;;;;;10485275;28;20488;-24
2023/03/22 21:15:53;;;;;;;5.82;1.77;;;16.50;99.90;;;;;;10476440;28;20094;-24
2023/03/22 21:20:56;;;;;;;5.88;2.20;;;17.90;99.10;;;;;;10491150;28;20131;-26
2023/03/22 21:25:59;;;;;;;6.45;2.70;;;16.60;99.90;;;;;;10483075;28;20055;-23
2023/03/22 21:31:08;;;;;;;8.50;2.53;;;16.30;99.90;;;;;;10486244;28;20123;-24
2023/03/22 21:36:12;;;;;;;4.05;2.03;;;15.60;99.90;;;;;;10492047;28;20047;-23
2023/03/22 21:41:15;;;;;;;7.85;3.17;;;15.50;99.90;;;;;;10497351;28;20504;-26
2023/03/22 21:46:18;;;;;;;;;;;15.80;99.90;;;;;;10483456;28;20043;-25
2023/03/22 21:51:23;;;;;;;6.47;2.25;;;16.40;99.90;;;;;;10496081;28;19999;-25
2023/03/22 21:56:25;;;;;;;9.68;2.20;;;17.60;99.90;;;;;;10484508;28;20131;-26
2023/03/22 22:01:30;;;;;;;5.87;2.30;;;17.60;99.90;;;;;;10497699;28;20040;-25
2023/03/22 22:06:32;;;;;;;7.72;1.80;;;16.90;99.90;;;;;;10486417;28;20066;-24
2023/03/22 22:11:35;;;;;;;9.70;3.23;;;16.40;99.90;;;;;;10490630;28;20052;-24
2023/03/22 22:16:38;;;;;;;6.97;2.45;;;15.30;99.90;;;;;;10485086;28;20404;-24
2023/03/22 22:21:40;;;;;;;6.40;2.17;;;16.30;99.90;;;;;;10468474;28;20084;-25
2023/03/22 22:26:42;;;;;;;5.23;1.37;;;15.00;99.90;;;;;;10491312;28;20344;-24
2023/03/22 22:31:45;;;;;;;6.93;2.00;;;15.90;99.90;;;;;;10488234;28;20106;-24
2023/03/22 22:36:47;;;;;;;3.70;1.98;;;15.50;99.90;;;;;;10493135;28;20905;-24
2023/03/22 22:41:49;;;;;;;6.07;2.60;;;16.70;99.90;;;;;;10487855;28;20053;-25
2023/03/22 22:46:53;;;;;;;5.23;2.03;;;16.20;99.90;;;;;;10473615;28;20816;-23
2023/03/22 22:51:54;;;;;;;6.28;1.67;;;16.30;99.90;;;;;;10494062;28;20464;-24
2023/03/22 22:56:56;;;;;;;6.97;2.80;;;15.20;99.90;;;;;;10484852;28;20113;-25
2023/03/22 23:02:00;;;;;;;9.77;2.53;;;15.00;99.90;;;;;;10493073;28;20045;-26
2023/03/22 23:07:02;;;;;;;2.63;1.80;;;14.30;99.90;;;;;;10486746;28;20456;-24
2023/03/22 23:12:04;;;;;;;5.10;1.70;;;14.90;99.90;;;;;;10483470;28;20131;-24
2023/03/22 23:17:07;;;;;;;4.60;1.88;;;15.80;99.90;;;;;;10510425;28;20114;-27
2023/03/22 23:22:13;;;;;;;4.10;1.80;;;15.20;99.90;;;;;;10501246;28;20554;-24
2023/03/22 23:27:16;;;;;;;2.58;1.40;;;15.70;99.90;;;;;;10501844;28;20127;-25
2023/03/22 23:32:20;;;;;;;3.95;1.55;;;15.90;99.90;;;;;;10508515;28;20072;-25
2023/03/22 23:37:26;;;;;;;2.20;1.10;;;15.90;99.90;;;;;;10495854;28;20159;-24
2023/03/22 23:42:28;;;;;;;3.35;1.40;;;16.60;99.90;;;;;;10495253;28;20040;-24
2023/03/22 23:47:31;;;;;;;6.53;2.07;;;16.40;99.90;;;;;;10500843;28;20044;-22
2023/03/22 23:52:33;;;;;;;3.97;1.83;;;15.30;99.90;;;;;;10511822;28;20478;-23
2023/03/22 23:57:35;;;;;;;4.70;2.00;;;16.20;99.90;;;;;;10500192;28;20146;-23
